createdAt,value
2018-10-09T00:00:03.547Z,48.10
2018-10-09T00:01:08.797Z,48.00
2018-10-09T00:02:14.129Z,48.00
2018-10-09T00:03:19.415Z,48.10
2018-10-09T00:04:24.744Z,48.00
2018-10-09T00:05:30.059Z,48.00
2018-10-09T00:06:36.003Z,48.00
2018-10-09T00:07:41.545Z,48.00
2018-10-09T00:08:46.881Z,48.10
2018-10-09T00:09:52.191Z,48.00
2018-10-09T00:10:57.482Z,48.00
2018-10-09T00:12:02.807Z,48.00
2018-10-09T00:13:08.247Z,48.00
2018-10-09T00:14:13.545Z,48.00
2018-10-09T00:15:18.962Z,48.00
2018-10-09T00:16:24.216Z,48.00
2018-10-09T00:17:29.464Z,48.00
2018-10-09T00:18:34.702Z,48.00
2018-10-09T00:19:40.043Z,48.00
2018-10-09T00:20:45.301Z,48.00
2018-10-09T00:21:50.548Z,48.00
2018-10-09T00:22:55.796Z,47.90
2018-10-09T00:24:01.518Z,47.90
2018-10-09T00:25:06.841Z,47.90
2018-10-09T00:26:12.119Z,47.90
2018-10-09T00:27:17.436Z,47.90
2018-10-09T00:28:22.738Z,47.90
2018-10-09T00:29:28.017Z,47.90
2018-10-09T00:30:34.943Z,47.90
2018-10-09T00:31:40.216Z,48.00
2018-10-09T00:32:45.499Z,47.90
2018-10-09T00:33:50.929Z,47.90
2018-10-09T00:34:56.275Z,47.90
2018-10-09T00:36:01.647Z,47.90
2018-10-09T00:37:06.962Z,47.90
2018-10-09T00:38:12.257Z,47.90
2018-10-09T00:39:17.617Z,48.00
2018-10-09T00:40:22.926Z,47.90
2018-10-09T00:41:28.293Z,48.60
2018-10-09T00:42:34.054Z,48.00
2018-10-09T00:43:39.391Z,48.50
2018-10-09T00:44:44.725Z,47.90
2018-10-09T00:45:50.051Z,47.90
2018-10-09T00:46:55.315Z,47.90
2018-10-09T00:48:01.630Z,47.90
2018-10-09T00:49:07.176Z,47.90
2018-10-09T00:50:12.643Z,47.90
2018-10-09T00:51:17.977Z,48.50
2018-10-09T00:52:23.311Z,47.90
2018-10-09T00:53:28.629Z,47.90
2018-10-09T00:54:33.887Z,47.90
2018-10-09T00:55:39.520Z,47.90
2018-10-09T00:56:44.808Z,47.90
2018-10-09T00:57:50.094Z,47.90
2018-10-09T00:58:55.434Z,47.90
2018-10-09T01:00:00.696Z,47.90
2018-10-09T01:01:05.957Z,47.90
2018-10-09T01:02:11.252Z,47.90
2018-10-09T01:03:16.525Z,47.90
2018-10-09T01:04:21.816Z,47.90
2018-10-09T01:05:27.083Z,47.90
2018-10-09T01:06:32.887Z,47.80
2018-10-09T01:07:38.198Z,47.80
2018-10-09T01:08:43.586Z,47.80
2018-10-09T01:09:48.881Z,47.80
2018-10-09T01:10:54.494Z,47.80
2018-10-09T01:11:59.781Z,47.80
2018-10-09T01:13:06.897Z,47.80
2018-10-09T01:14:12.261Z,47.80
2018-10-09T01:15:17.553Z,47.80
2018-10-09T01:16:22.901Z,47.80
2018-10-09T01:17:28.208Z,47.90
2018-10-09T01:18:33.559Z,47.80
2018-10-09T01:19:38.922Z,47.80
2018-10-09T01:20:44.206Z,47.70
2018-10-09T01:21:49.559Z,47.70
2018-10-09T01:22:54.823Z,47.80
2018-10-09T01:24:00.166Z,48.40
2018-10-09T01:25:05.660Z,47.70
2018-10-09T01:26:10.988Z,47.70
2018-10-09T01:27:16.287Z,47.70
2018-10-09T01:28:21.567Z,47.70
2018-10-09T01:29:26.837Z,47.80
2018-10-09T01:30:32.151Z,47.70
2018-10-09T01:31:37.479Z,47.80
2018-10-09T01:32:42.809Z,47.70
2018-10-09T01:33:48.511Z,47.70
2018-10-09T01:34:53.764Z,47.70
2018-10-09T01:35:59.013Z,47.70
2018-10-09T01:37:04.286Z,47.70
2018-10-09T01:38:09.573Z,47.70
2018-10-09T01:39:14.859Z,47.70
2018-10-09T01:40:20.136Z,47.70
2018-10-09T01:41:25.402Z,47.70
2018-10-09T01:42:30.735Z,47.60
2018-10-09T01:43:36.046Z,47.70
2018-10-09T01:44:41.314Z,47.70
2018-10-09T01:45:47.839Z,47.70
2018-10-09T01:46:53.679Z,47.70
2018-10-09T01:47:58.962Z,47.60
2018-10-09T01:49:04.247Z,47.70
2018-10-09T01:50:09.596Z,47.60
2018-10-09T01:51:15.072Z,47.70
2018-10-09T01:52:20.403Z,47.60
2018-10-09T01:53:26.699Z,47.70
2018-10-09T01:54:32.457Z,47.50
2018-10-09T01:55:37.750Z,47.60
2018-10-09T01:56:43.082Z,47.60
2018-10-09T01:57:48.415Z,47.70
2018-10-09T01:58:53.804Z,47.50
2018-10-09T01:59:59.136Z,47.50
2018-10-09T02:01:05.576Z,47.70
2018-10-09T02:02:10.916Z,47.60
2018-10-09T02:03:16.343Z,47.60
2018-10-09T02:04:21.660Z,47.50
2018-10-09T02:05:27.011Z,47.60
2018-10-09T02:06:32.367Z,47.50
2018-10-09T02:07:37.704Z,47.60
2018-10-09T02:08:43.027Z,47.50
2018-10-09T02:09:48.294Z,47.60
2018-10-09T02:10:53.606Z,47.50
2018-10-09T02:11:58.950Z,47.50
2018-10-09T02:13:04.226Z,47.50
2018-10-09T02:14:09.482Z,47.50
2018-10-09T02:15:14.746Z,47.50
2018-10-09T02:16:20.029Z,47.60
2018-10-09T02:17:25.269Z,47.50
2018-10-09T02:18:31.581Z,47.60
2018-10-09T02:19:37.078Z,47.50
2018-10-09T02:20:42.329Z,47.50
2018-10-09T02:21:47.623Z,47.50
2018-10-09T02:22:52.868Z,47.60
2018-10-09T02:23:58.100Z,47.60
2018-10-09T02:25:03.367Z,47.60
2018-10-09T02:26:09.564Z,47.60
2018-10-09T02:27:14.830Z,47.60
2018-10-09T02:28:20.106Z,47.60
2018-10-09T02:29:25.352Z,47.60
2018-10-09T02:30:30.666Z,47.60
2018-10-09T02:31:35.976Z,47.60
2018-10-09T02:32:41.244Z,47.50
2018-10-09T02:33:46.600Z,47.60
2018-10-09T02:34:51.746Z,47.60
2018-10-09T02:35:57.285Z,47.60
2018-10-09T02:37:02.676Z,47.60
2018-10-09T02:38:07.943Z,47.60
2018-10-09T02:39:13.233Z,47.50
2018-10-09T02:40:18.508Z,48.20
2018-10-09T02:41:23.823Z,47.50
2018-10-09T02:42:29.087Z,47.50
2018-10-09T02:43:34.381Z,47.50
2018-10-09T02:44:39.771Z,47.60
2018-10-09T02:45:45.061Z,47.50
2018-10-09T02:46:50.312Z,47.50
2018-10-09T02:47:58.369Z,47.60
2018-10-09T02:49:03.680Z,47.50
2018-10-09T02:50:08.971Z,47.50
2018-10-09T02:51:14.301Z,47.50
2018-10-09T02:52:19.612Z,47.50
2018-10-09T02:53:24.966Z,47.50
2018-10-09T02:54:30.257Z,47.50
2018-10-09T02:55:35.562Z,47.60
2018-10-09T02:56:40.920Z,47.50
2018-10-09T02:57:46.183Z,47.50
2018-10-09T02:58:51.438Z,47.50
2018-10-09T02:59:56.683Z,47.50
2018-10-09T03:01:01.943Z,47.50
2018-10-09T03:02:07.276Z,47.40
2018-10-09T03:03:12.522Z,47.40
2018-10-09T03:04:17.812Z,47.40
2018-10-09T03:05:23.079Z,47.40
2018-10-09T03:06:28.369Z,47.50
2018-10-09T03:07:33.726Z,47.50
2018-10-09T03:08:40.760Z,47.50
2018-10-09T03:09:46.011Z,47.50
2018-10-09T03:10:51.371Z,47.50
2018-10-09T03:11:56.692Z,47.50
2018-10-09T03:13:02.054Z,47.50
2018-10-09T03:14:07.480Z,47.50
2018-10-09T03:15:12.983Z,47.50
2018-10-09T03:16:18.496Z,47.40
2018-10-09T03:17:23.863Z,47.40
2018-10-09T03:18:29.214Z,47.40
2018-10-09T03:19:34.595Z,47.40
2018-10-09T03:20:40.046Z,47.40
2018-10-09T03:21:45.370Z,47.40
2018-10-09T03:22:50.769Z,47.40
2018-10-09T03:23:56.123Z,47.40
2018-10-09T03:25:01.376Z,47.40
2018-10-09T03:26:06.831Z,47.40
2018-10-09T03:27:12.158Z,47.40
2018-10-09T03:28:17.513Z,47.40
2018-10-09T03:29:22.964Z,47.40
2018-10-09T03:30:28.318Z,47.40
2018-10-09T03:31:33.707Z,47.40
2018-10-09T03:32:39.005Z,47.40
2018-10-09T03:33:44.295Z,47.40
2018-10-09T03:34:49.590Z,47.30
2018-10-09T03:35:54.920Z,47.30
2018-10-09T03:37:00.212Z,47.30
2018-10-09T03:38:05.560Z,47.30
2018-10-09T03:39:10.829Z,47.30
2018-10-09T03:40:16.306Z,47.30
2018-10-09T03:41:21.633Z,47.30
2018-10-09T03:42:26.969Z,47.30
2018-10-09T03:43:32.258Z,47.30
2018-10-09T03:44:37.526Z,47.30
2018-10-09T03:45:42.798Z,47.30
2018-10-09T03:46:48.030Z,47.20
2018-10-09T03:47:53.318Z,47.20
2018-10-09T03:48:59.697Z,47.30
2018-10-09T03:50:04.936Z,47.30
2018-10-09T03:51:10.193Z,47.20
2018-10-09T03:52:15.544Z,47.30
2018-10-09T03:53:20.918Z,47.20
2018-10-09T03:54:26.186Z,47.30
2018-10-09T03:55:31.477Z,47.20
2018-10-09T03:56:36.747Z,47.20
2018-10-09T03:57:42.062Z,47.20
2018-10-09T03:58:47.329Z,47.20
2018-10-09T03:59:52.622Z,47.30
2018-10-09T04:00:57.938Z,47.30
2018-10-09T04:02:03.203Z,47.20
2018-10-09T04:03:08.453Z,47.30
2018-10-09T04:04:13.848Z,47.30
2018-10-09T04:05:19.139Z,47.30
2018-10-09T04:06:24.409Z,47.30
2018-10-09T04:07:29.703Z,47.30
2018-10-09T04:08:34.972Z,47.30
2018-10-09T04:09:40.303Z,47.30
2018-10-09T04:10:45.510Z,47.30
2018-10-09T04:11:50.761Z,47.20
2018-10-09T04:12:56.255Z,47.20
2018-10-09T04:14:01.597Z,47.20
2018-10-09T04:15:06.859Z,47.20
2018-10-09T04:16:12.148Z,47.20
2018-10-09T04:17:17.480Z,47.30
2018-10-09T04:18:22.846Z,47.20
2018-10-09T04:19:28.229Z,47.30
2018-10-09T04:20:33.578Z,47.20
2018-10-09T04:21:38.890Z,47.20
2018-10-09T04:22:44.261Z,47.30
2018-10-09T04:23:49.536Z,47.20
2018-10-09T04:24:55.026Z,47.20
2018-10-09T04:26:00.389Z,47.30
2018-10-09T04:27:06.213Z,47.20
2018-10-09T04:28:11.517Z,47.20
2018-10-09T04:29:16.915Z,47.20
2018-10-09T04:30:23.374Z,47.30
2018-10-09T04:31:28.662Z,47.30
2018-10-09T04:32:33.997Z,47.30
2018-10-09T04:33:39.325Z,47.20
2018-10-09T04:34:44.620Z,47.30
2018-10-09T04:35:49.958Z,47.30
2018-10-09T04:36:55.342Z,47.20
2018-10-09T04:38:00.613Z,47.20
2018-10-09T04:39:05.908Z,47.40
2018-10-09T04:40:11.321Z,47.20
2018-10-09T04:41:16.634Z,47.20
2018-10-09T04:42:21.919Z,47.20
2018-10-09T04:43:27.253Z,47.20
2018-10-09T04:44:32.524Z,47.20
2018-10-09T04:45:37.798Z,47.30
2018-10-09T04:46:43.187Z,47.20
2018-10-09T04:47:48.453Z,47.20
2018-10-09T04:48:53.746Z,47.20
2018-10-09T04:49:59.098Z,47.20
2018-10-09T04:51:04.497Z,47.20
2018-10-09T04:52:09.780Z,47.20
2018-10-09T04:53:15.088Z,47.20
2018-10-09T04:54:20.323Z,47.20
2018-10-09T04:55:25.570Z,47.20
2018-10-09T04:56:30.828Z,47.20
2018-10-09T04:57:36.112Z,47.10
2018-10-09T04:58:41.439Z,47.10
2018-10-09T04:59:46.718Z,47.10
2018-10-09T05:00:52.144Z,47.10
2018-10-09T05:01:57.363Z,47.10
2018-10-09T05:03:02.631Z,47.10
2018-10-09T05:04:07.922Z,47.10
2018-10-09T05:05:13.213Z,47.10
2018-10-09T05:06:18.518Z,47.10
2018-10-09T05:07:23.793Z,47.10
2018-10-09T05:08:29.061Z,47.20
2018-10-09T05:09:34.680Z,47.10
2018-10-09T05:10:39.988Z,47.20
2018-10-09T05:11:45.241Z,47.20
2018-10-09T05:12:50.546Z,47.10
2018-10-09T05:13:55.881Z,47.10
2018-10-09T05:15:01.544Z,47.10
2018-10-09T05:16:06.819Z,47.10
2018-10-09T05:17:12.228Z,47.10
2018-10-09T05:18:17.559Z,47.10
2018-10-09T05:19:22.830Z,47.10
2018-10-09T05:20:28.315Z,47.20
2018-10-09T05:21:33.615Z,47.30
2018-10-09T05:22:39.296Z,47.30
2018-10-09T05:23:44.628Z,47.30
2018-10-09T05:24:50.167Z,47.40
2018-10-09T05:25:55.785Z,47.40
2018-10-09T05:27:01.176Z,47.40
2018-10-09T05:28:06.630Z,47.40
2018-10-09T05:29:11.940Z,47.40
2018-10-09T05:30:17.283Z,47.40
2018-10-09T05:31:22.743Z,47.50
2018-10-09T05:32:28.511Z,47.50
2018-10-09T05:33:33.882Z,47.50
2018-10-09T05:34:39.193Z,47.50
2018-10-09T05:35:44.607Z,47.50
2018-10-09T05:36:49.961Z,47.50
2018-10-09T05:37:55.928Z,47.50
2018-10-09T05:39:01.660Z,47.60
2018-10-09T05:40:06.997Z,47.70
2018-10-09T05:41:12.400Z,47.70
2018-10-09T05:42:17.764Z,47.70
2018-10-09T05:43:23.149Z,47.80
2018-10-09T05:44:28.592Z,47.80
2018-10-09T05:45:33.916Z,48.00
2018-10-09T05:46:39.328Z,48.10
2018-10-09T05:47:44.749Z,48.30
2018-10-09T05:48:50.097Z,48.60
2018-10-09T05:49:55.907Z,48.60
2018-10-09T05:51:01.264Z,48.50
2018-10-09T05:52:06.659Z,48.70
2018-10-09T05:53:12.000Z,48.80
2018-10-09T05:54:17.342Z,48.80
2018-10-09T05:55:22.665Z,48.90
2018-10-09T05:56:28.010Z,49.00
2018-10-09T05:57:33.309Z,49.10
2018-10-09T05:58:38.652Z,50.00
2018-10-09T05:59:45.944Z,49.30
2018-10-09T06:00:51.422Z,49.50
2018-10-09T06:01:56.787Z,49.60
2018-10-09T06:03:02.138Z,49.70
2018-10-09T06:04:07.437Z,49.80
2018-10-09T06:05:12.830Z,49.90
2018-10-09T06:06:18.346Z,50.00
2018-10-09T06:07:23.821Z,50.00
2018-10-09T06:08:29.130Z,50.00
2018-10-09T06:09:34.753Z,50.10
2018-10-09T06:10:40.045Z,50.10
2018-10-09T06:11:45.361Z,50.10
2018-10-09T06:12:50.671Z,50.20
2018-10-09T06:13:56.019Z,50.20
2018-10-09T06:15:01.289Z,51.00
2018-10-09T06:16:06.804Z,50.30
2018-10-09T06:17:13.831Z,50.40
2018-10-09T06:18:19.475Z,50.30
2018-10-09T06:19:24.766Z,50.40
2018-10-09T06:20:30.036Z,50.50
2018-10-09T06:21:35.462Z,50.40
2018-10-09T06:22:40.739Z,50.30
2018-10-09T06:23:46.169Z,50.20
2018-10-09T06:24:51.663Z,50.10
2018-10-09T06:25:56.922Z,50.10
2018-10-09T06:27:02.209Z,50.10
2018-10-09T06:28:07.557Z,50.10
2018-10-09T06:29:12.753Z,50.00
2018-10-09T06:30:18.171Z,50.00
2018-10-09T06:31:23.418Z,50.00
2018-10-09T06:32:28.682Z,49.90
2018-10-09T06:33:33.955Z,50.00
2018-10-09T06:34:39.202Z,50.20
2018-10-09T06:35:44.452Z,50.10
2018-10-09T06:36:50.085Z,50.10
2018-10-09T06:37:55.423Z,50.10
2018-10-09T06:39:00.675Z,50.00
2018-10-09T06:40:06.190Z,50.00
2018-10-09T06:41:11.438Z,50.00
2018-10-09T06:42:16.730Z,49.90
2018-10-09T06:43:22.069Z,49.90
2018-10-09T06:44:27.356Z,49.90
2018-10-09T06:45:32.706Z,49.90
2018-10-09T06:46:38.070Z,49.90
2018-10-09T06:47:43.395Z,49.90
2018-10-09T06:48:48.732Z,50.50
2018-10-09T06:49:54.072Z,50.00
2018-10-09T06:50:59.321Z,50.00
2018-10-09T06:52:06.130Z,50.00
2018-10-09T06:53:11.584Z,50.00
2018-10-09T06:54:17.044Z,50.30
2018-10-09T06:55:22.381Z,50.40
2018-10-09T06:56:27.759Z,50.40
2018-10-09T06:57:33.109Z,50.50
2018-10-09T06:58:38.627Z,50.50
2018-10-09T06:59:43.978Z,50.40
2018-10-09T07:00:49.415Z,50.30
2018-10-09T07:01:54.798Z,50.30
2018-10-09T07:03:00.984Z,50.30
2018-10-09T07:04:06.455Z,50.30
2018-10-09T07:05:11.886Z,50.30
2018-10-09T07:06:17.336Z,50.20
2018-10-09T07:07:22.894Z,50.20
2018-10-09T07:08:28.353Z,50.20
2018-10-09T07:09:33.641Z,50.20
2018-10-09T07:10:39.805Z,50.10
2018-10-09T07:11:45.205Z,50.10
2018-10-09T07:12:50.718Z,50.00
2018-10-09T07:13:57.036Z,50.00
2018-10-09T07:15:03.226Z,50.00
2018-10-09T07:16:08.558Z,50.60
2018-10-09T07:17:13.913Z,50.00
2018-10-09T07:18:19.368Z,49.90
2018-10-09T07:19:25.468Z,49.80
2018-10-09T07:20:30.906Z,49.70
2018-10-09T07:21:37.067Z,49.70
2018-10-09T07:22:42.479Z,50.30
2018-10-09T07:23:48.828Z,49.60
2018-10-09T07:24:54.144Z,49.50
2018-10-09T07:25:59.537Z,49.60
2018-10-09T07:27:05.096Z,49.50
2018-10-09T07:28:10.490Z,49.50
2018-10-09T07:29:16.719Z,49.50
2018-10-09T07:30:22.093Z,49.30
2018-10-09T07:31:27.594Z,49.40
2018-10-09T07:32:32.900Z,49.20
2018-10-09T07:33:39.119Z,49.20
2018-10-09T07:34:44.523Z,49.20
2018-10-09T07:35:49.965Z,49.20
2018-10-09T07:36:55.415Z,49.10
2018-10-09T07:38:01.650Z,49.10
2018-10-09T07:39:07.083Z,49.10
2018-10-09T07:40:12.573Z,49.00
2018-10-09T07:41:17.945Z,49.00
2018-10-09T07:42:23.358Z,49.00
2018-10-09T07:43:29.560Z,49.10
2018-10-09T07:44:34.863Z,49.10
2018-10-09T07:45:40.479Z,49.10
2018-10-09T07:46:45.867Z,49.10
2018-10-09T07:47:52.211Z,49.10
2018-10-09T07:48:57.475Z,49.20
2018-10-09T07:50:02.827Z,49.20
2018-10-09T07:51:08.123Z,49.20
2018-10-09T07:52:13.650Z,49.10
2018-10-09T07:53:19.002Z,49.10
2018-10-09T07:54:24.428Z,49.10
2018-10-09T07:55:30.019Z,49.10
2018-10-09T07:56:35.462Z,49.20
2018-10-09T07:57:40.791Z,49.30
2018-10-09T07:58:46.232Z,49.20
2018-10-09T07:59:51.596Z,49.60
2018-10-09T08:00:57.152Z,49.50
2018-10-09T08:02:02.713Z,49.50
2018-10-09T08:03:08.044Z,49.30
2018-10-09T08:04:13.416Z,49.50
2018-10-09T08:05:18.769Z,49.40
2018-10-09T08:06:24.570Z,49.30
2018-10-09T08:07:29.963Z,49.20
2018-10-09T08:08:35.441Z,49.20
2018-10-09T08:09:40.849Z,49.80
2018-10-09T08:10:46.255Z,49.20
2018-10-09T08:11:51.555Z,49.20
2018-10-09T08:12:57.156Z,49.20
2018-10-09T08:14:02.818Z,49.20
2018-10-09T08:15:08.979Z,49.20
2018-10-09T08:16:14.575Z,49.20
2018-10-09T08:17:20.706Z,49.30
2018-10-09T08:18:26.190Z,49.30
2018-10-09T08:19:32.390Z,49.10
2018-10-09T08:20:38.702Z,49.10
2018-10-09T08:21:44.302Z,49.00
2018-10-09T08:22:50.589Z,48.90
2018-10-09T08:23:55.985Z,49.00
2018-10-09T08:25:01.544Z,49.00
2018-10-09T08:26:07.725Z,49.00
2018-10-09T08:27:13.059Z,48.90
2018-10-09T08:28:18.420Z,48.90
2018-10-09T08:29:24.641Z,48.80
2018-10-09T08:30:30.353Z,48.80
2018-10-09T08:31:35.641Z,48.80
2018-10-09T08:32:41.765Z,48.80
2018-10-09T08:33:48.110Z,48.60
2018-10-09T08:34:53.500Z,48.50
2018-10-09T08:35:58.947Z,48.50
2018-10-09T08:37:04.276Z,48.60
2018-10-09T08:38:10.543Z,48.50
2018-10-09T08:39:15.851Z,48.50
2018-10-09T08:40:22.290Z,48.30
2018-10-09T08:41:28.314Z,48.20
2018-10-09T08:42:34.497Z,48.20
2018-10-09T08:43:39.869Z,48.20
2018-10-09T08:44:45.217Z,48.10
2018-10-09T08:45:51.980Z,48.10
2018-10-09T08:46:57.252Z,48.00
2018-10-09T08:48:03.571Z,47.80
2018-10-09T08:49:08.939Z,47.60
2018-10-09T08:50:14.210Z,47.70
2018-10-09T08:51:19.475Z,47.70
2018-10-09T08:52:24.795Z,47.60
2018-10-09T08:53:30.125Z,47.50
2018-10-09T08:54:35.537Z,47.40
2018-10-09T08:55:41.754Z,47.40
2018-10-09T08:56:47.909Z,47.50
2018-10-09T08:57:53.232Z,47.50
2018-10-09T08:58:59.499Z,47.50
2018-10-09T09:00:04.965Z,47.60
2018-10-09T09:01:10.249Z,47.70
2018-10-09T09:02:15.687Z,47.70
2018-10-09T09:03:21.853Z,47.70
2018-10-09T09:04:27.391Z,47.70
2018-10-09T09:05:32.793Z,47.60
2018-10-09T09:06:38.242Z,47.50
2018-10-09T09:07:43.841Z,47.60
2018-10-09T09:08:49.321Z,47.70
2018-10-09T09:09:54.934Z,47.60
2018-10-09T09:11:00.434Z,47.70
2018-10-09T09:12:06.687Z,47.70
2018-10-09T09:13:12.231Z,47.70
2018-10-09T09:14:17.697Z,47.90
2018-10-09T09:15:24.031Z,48.10
2018-10-09T09:16:31.183Z,48.20
2018-10-09T09:17:36.691Z,48.30
2018-10-09T09:18:42.079Z,48.20
2018-10-09T09:19:47.611Z,48.20
2018-10-09T09:20:53.415Z,48.20
2018-10-09T09:21:58.773Z,48.20
2018-10-09T09:23:04.262Z,48.20
2018-10-09T09:24:09.653Z,48.30
2018-10-09T09:25:15.312Z,48.30
2018-10-09T09:26:20.880Z,48.20
2018-10-09T09:27:26.635Z,48.10
2018-10-09T09:28:32.726Z,48.10
2018-10-09T09:29:38.054Z,48.20
2018-10-09T09:30:43.597Z,48.20
2018-10-09T09:31:48.923Z,48.20
2018-10-09T09:32:55.036Z,48.40
2018-10-09T09:34:00.507Z,48.30
2018-10-09T09:35:05.836Z,48.20
2018-10-09T09:36:12.037Z,48.20
2018-10-09T09:37:18.338Z,48.40
2018-10-09T09:38:23.764Z,48.50
2018-10-09T09:39:29.118Z,48.60
2018-10-09T09:40:34.536Z,48.60
2018-10-09T09:41:40.710Z,49.10
2018-10-09T09:42:46.769Z,49.30
2018-10-09T09:43:52.283Z,49.60
2018-10-09T09:44:57.534Z,49.90
2018-10-09T09:46:02.898Z,50.00
2018-10-09T09:47:09.051Z,50.10
2018-10-09T09:48:15.353Z,49.90
2018-10-09T09:49:20.647Z,49.80
2018-10-09T09:50:25.916Z,49.80
2018-10-09T09:51:31.291Z,49.80
2018-10-09T09:52:37.580Z,49.70
2018-10-09T09:53:43.766Z,49.60
2018-10-09T09:54:49.068Z,49.60
2018-10-09T09:55:54.585Z,49.60
2018-10-09T09:57:00.018Z,49.50
2018-10-09T09:58:06.273Z,49.50
2018-10-09T09:59:12.075Z,49.50
2018-10-09T10:00:17.195Z,49.60
2018-10-09T10:01:22.952Z,49.70
2018-10-09T10:02:28.883Z,50.30
2018-10-09T10:03:34.184Z,49.70
2018-10-09T10:04:39.526Z,49.70
2018-10-09T10:05:44.945Z,49.80
2018-10-09T10:06:50.463Z,49.90
2018-10-09T10:07:55.766Z,50.00
2018-10-09T10:09:01.977Z,50.10
2018-10-09T10:10:07.353Z,50.20
2018-10-09T10:11:12.724Z,50.30
2018-10-09T10:12:18.247Z,50.30
2018-10-09T10:13:24.479Z,50.40
2018-10-09T10:14:29.954Z,51.10
2018-10-09T10:15:35.287Z,50.50
2018-10-09T10:16:40.651Z,50.50
2018-10-09T10:17:45.968Z,50.60
2018-10-09T10:18:51.323Z,50.70
2018-10-09T10:19:56.895Z,50.70
2018-10-09T10:21:02.192Z,50.70
2018-10-09T10:22:07.649Z,50.80
2018-10-09T10:23:13.085Z,50.80
2018-10-09T10:24:18.445Z,50.80
2018-10-09T10:25:23.840Z,50.80
2018-10-09T10:26:30.240Z,51.40
2018-10-09T10:27:35.633Z,50.50
2018-10-09T10:28:41.058Z,49.50
2018-10-09T10:29:46.397Z,49.10
2018-10-09T10:30:51.896Z,48.60
2018-10-09T10:31:57.310Z,48.30
2018-10-09T10:33:02.953Z,48.20
2018-10-09T10:34:09.123Z,48.30
2018-10-09T10:35:14.656Z,48.30
2018-10-09T10:36:20.121Z,48.10
2018-10-09T10:37:26.307Z,47.80
2018-10-09T10:38:32.495Z,47.90
2018-10-09T10:39:37.905Z,48.00
2018-10-09T10:40:43.445Z,48.80
2018-10-09T10:41:48.864Z,48.20
2018-10-09T10:42:55.108Z,48.30
2018-10-09T10:44:01.141Z,48.40
2018-10-09T10:45:06.537Z,48.50
2018-10-09T10:46:11.934Z,48.70
2018-10-09T10:47:17.382Z,48.80
2018-10-09T10:48:23.580Z,48.80
2018-10-09T10:49:29.253Z,48.90
2018-10-09T10:50:34.631Z,49.00
2018-10-09T10:51:41.034Z,49.00
2018-10-09T10:52:46.442Z,48.90
2018-10-09T10:53:51.916Z,48.90
2018-10-09T10:54:57.443Z,48.60
2018-10-09T10:56:02.949Z,48.50
2018-10-09T10:57:08.462Z,48.50
2018-10-09T10:58:14.592Z,48.30
2018-10-09T10:59:19.890Z,48.10
2018-10-09T11:00:25.223Z,48.10
2018-10-09T11:01:30.875Z,47.90
2018-10-09T11:02:36.915Z,47.90
2018-10-09T11:03:42.294Z,47.80
2018-10-09T11:04:48.500Z,47.70
2018-10-09T11:05:53.926Z,47.80
2018-10-09T11:07:00.181Z,47.90
2018-10-09T11:08:05.769Z,47.80
2018-10-09T11:09:11.193Z,47.70
2018-10-09T11:10:17.348Z,47.50
2018-10-09T11:11:22.767Z,47.50
2018-10-09T11:12:28.125Z,47.40
2018-10-09T11:13:33.436Z,47.50
2018-10-09T11:14:39.598Z,47.40
2018-10-09T11:15:45.136Z,47.40
2018-10-09T11:16:50.458Z,47.40
2018-10-09T11:17:55.743Z,47.30
2018-10-09T11:19:01.037Z,47.30
2018-10-09T11:20:06.265Z,47.30
2018-10-09T11:21:11.555Z,47.30
2018-10-09T11:22:16.807Z,47.20
2018-10-09T11:23:22.904Z,47.80
2018-10-09T11:24:28.314Z,47.10
2018-10-09T11:25:33.599Z,46.90
2018-10-09T11:26:38.954Z,46.90
2018-10-09T11:27:44.266Z,46.90
2018-10-09T11:28:49.593Z,47.40
2018-10-09T11:29:54.951Z,46.70
2018-10-09T11:31:01.257Z,46.60
2018-10-09T11:32:06.555Z,46.60
2018-10-09T11:33:11.906Z,46.60
2018-10-09T11:34:17.239Z,46.60
2018-10-09T11:35:22.729Z,46.50
2018-10-09T11:36:28.081Z,46.50
2018-10-09T11:37:33.371Z,46.50
2018-10-09T11:38:38.724Z,46.60
2018-10-09T11:39:44.163Z,46.50
2018-10-09T11:40:50.301Z,46.70
2018-10-09T11:41:56.467Z,46.60
2018-10-09T11:43:01.895Z,47.50
2018-10-09T11:44:07.277Z,47.10
2018-10-09T11:45:12.749Z,46.80
2018-10-09T11:46:18.357Z,46.70
2018-10-09T11:47:23.771Z,46.40
2018-10-09T11:48:29.074Z,46.30
2018-10-09T11:49:34.465Z,46.20
2018-10-09T11:50:40.602Z,46.20
2018-10-09T11:51:46.782Z,46.10
2018-10-09T11:52:52.212Z,45.90
2018-10-09T11:53:57.566Z,45.60
2018-10-09T11:55:03.759Z,45.40
2018-10-09T11:56:09.027Z,45.30
2018-10-09T11:57:14.436Z,45.60
2018-10-09T11:58:20.585Z,45.80
2018-10-09T11:59:26.667Z,45.90
2018-10-09T12:00:31.946Z,46.80
2018-10-09T12:01:37.258Z,46.30
2018-10-09T12:02:43.462Z,46.40
2018-10-09T12:03:49.557Z,46.60
2018-10-09T12:04:54.908Z,46.70
2018-10-09T12:06:01.142Z,46.60
2018-10-09T12:07:06.574Z,46.60
2018-10-09T12:08:12.784Z,46.60
2018-10-09T12:09:18.101Z,46.60
2018-10-09T12:10:24.381Z,46.60
2018-10-09T12:11:29.645Z,46.70
2018-10-09T12:12:35.017Z,46.70
2018-10-09T12:13:40.307Z,46.70
2018-10-09T12:14:46.422Z,46.70
2018-10-09T12:15:51.971Z,46.60
2018-10-09T12:16:57.244Z,46.60
2018-10-09T12:18:02.623Z,46.50
2018-10-09T12:19:07.914Z,46.20
2018-10-09T12:20:13.239Z,45.90
2018-10-09T12:21:18.514Z,45.70
2018-10-09T12:22:24.594Z,45.80
2018-10-09T12:23:29.850Z,45.50
2018-10-09T12:24:35.989Z,45.40
2018-10-09T12:25:41.253Z,45.40
2018-10-09T12:26:46.585Z,45.40
2018-10-09T12:27:51.977Z,45.40
2018-10-09T12:28:57.386Z,44.90
2018-10-09T12:30:02.765Z,44.70
2018-10-09T12:31:08.148Z,44.80
2018-10-09T12:32:13.518Z,44.80
2018-10-09T12:33:19.656Z,44.80
2018-10-09T12:34:24.966Z,44.80
2018-10-09T12:35:30.478Z,44.60
2018-10-09T12:36:35.842Z,44.50
2018-10-09T12:37:41.172Z,44.40
2018-10-09T12:38:46.543Z,44.30
2018-10-09T12:39:51.859Z,44.40
2018-10-09T12:40:57.145Z,44.50
2018-10-09T12:42:02.438Z,44.50
2018-10-09T12:43:07.707Z,44.50
2018-10-09T12:44:13.307Z,44.50
2018-10-09T12:45:18.907Z,44.50
2018-10-09T12:46:25.358Z,44.40
2018-10-09T12:47:30.935Z,44.40
2018-10-09T12:48:36.466Z,44.40
2018-10-09T12:49:42.031Z,44.30
2018-10-09T12:50:47.643Z,43.90
2018-10-09T12:51:53.047Z,44.00
2018-10-09T12:52:58.513Z,44.90
2018-10-09T12:54:03.950Z,44.10
2018-10-09T12:55:09.410Z,43.70
2018-10-09T12:56:14.957Z,43.50
2018-10-09T12:57:20.474Z,43.40
2018-10-09T12:58:25.997Z,43.40
2018-10-09T12:59:31.469Z,43.30
2018-10-09T13:00:36.900Z,43.10
2018-10-09T13:01:42.396Z,43.10
2018-10-09T13:02:48.080Z,43.00
2018-10-09T13:03:53.404Z,42.80
2018-10-09T13:04:58.731Z,42.70
2018-10-09T13:06:04.286Z,42.70
2018-10-09T13:07:09.729Z,43.00
2018-10-09T13:08:15.084Z,43.20
2018-10-09T13:09:20.527Z,43.40
2018-10-09T13:10:25.850Z,43.40
2018-10-09T13:11:31.327Z,43.50
2018-10-09T13:12:36.870Z,44.00
2018-10-09T13:13:42.325Z,43.10
2018-10-09T13:14:47.825Z,42.20
2018-10-09T13:15:53.278Z,41.40
2018-10-09T13:16:58.721Z,41.40
2018-10-09T13:18:04.382Z,41.90
2018-10-09T13:19:09.950Z,42.40
2018-10-09T13:20:15.513Z,42.40
2018-10-09T13:21:21.256Z,42.60
2018-10-09T13:22:27.171Z,42.70
2018-10-09T13:23:32.465Z,43.10
2018-10-09T13:24:38.089Z,43.50
2018-10-09T13:25:43.844Z,43.70
2018-10-09T13:26:49.298Z,44.20
2018-10-09T13:27:54.979Z,44.40
2018-10-09T13:29:00.613Z,44.50
2018-10-09T13:30:06.420Z,44.30
2018-10-09T13:31:11.952Z,44.20
2018-10-09T13:32:17.662Z,44.20
2018-10-09T13:33:23.160Z,44.30
2018-10-09T13:34:28.952Z,44.70
2018-10-09T13:35:34.296Z,43.90
2018-10-09T13:36:39.707Z,43.70
2018-10-09T13:37:45.740Z,43.30
2018-10-09T13:38:51.387Z,42.60
2018-10-09T13:39:56.785Z,42.40
2018-10-09T13:41:02.729Z,42.20
2018-10-09T13:42:08.266Z,42.40
2018-10-09T13:43:13.721Z,42.50
2018-10-09T13:44:19.105Z,42.40
2018-10-09T13:45:24.558Z,42.50
2018-10-09T13:46:29.973Z,42.50
2018-10-09T13:47:35.456Z,42.50
2018-10-09T13:48:40.746Z,42.50
2018-10-09T13:49:46.880Z,42.40
2018-10-09T13:50:52.370Z,42.10
2018-10-09T13:51:58.104Z,42.00
2018-10-09T13:53:03.599Z,41.80
2018-10-09T13:54:09.061Z,41.60
2018-10-09T13:55:14.693Z,41.30
2018-10-09T13:56:20.589Z,41.20
2018-10-09T13:57:26.134Z,41.20
2018-10-09T13:58:31.460Z,41.30
2018-10-09T13:59:36.866Z,41.30
2018-10-09T14:00:42.213Z,40.70
2018-10-09T14:01:47.514Z,40.50
2018-10-09T14:02:52.971Z,40.50